<?xml version="1.0" encoding="UTF-8" standalone="no" ?>
<gpx xmlns="http://www.topografix.com/GPX/1/1" creator="www.plotaroute.com" version="1.1"  xmlns:xsi="http://www.w3.org/2001/XMLSchema-instance" xsi:schemaLocation="http://www.topografix.com/GPX/1/1 http://www.topografix.com/GPX/1/1/gpx.xsd">
<metadata>
<desc>Route created on plotaroute.com</desc>
</metadata>
<trk>
<name>1990-LeJog-Day4</name>
<trkseg>
<trkpt lat="51.790921" lon="-2.733335">
<ele>29</ele>
<time>2020-02-17T00:00:00Z</time></trkpt>
<trkpt lat="51.791488" lon="-2.730929">
<ele>38</ele>
<time>2020-02-17T00:00:32Z</time></trkpt>
<trkpt lat="51.791794" lon="-2.730408">
<ele>40</ele>
<time>2020-02-17T00:00:41Z</time></trkpt>
<trkpt lat="51.792586" lon="-2.729706">
<ele>35</ele>
<time>2020-02-17T00:00:59Z</time></trkpt>
<trkpt lat="51.793803" lon="-2.728904">
<ele>29</ele>
<time>2020-02-17T00:01:25Z</time></trkpt>
<trkpt lat="51.794871" lon="-2.726618">
<ele>26</ele>
<time>2020-02-17T00:02:01Z</time></trkpt>
<trkpt lat="51.79582" lon="-2.725312">
<ele>29</ele>
<time>2020-02-17T00:02:26Z</time></trkpt>
<trkpt lat="51.796353" lon="-2.724262">
<ele>29</ele>
<time>2020-02-17T00:02:43Z</time></trkpt>
<trkpt lat="51.797155" lon="-2.721634">
<ele>23</ele>
<time>2020-02-17T00:03:19Z</time></trkpt>
<trkpt lat="51.79759" lon="-2.720724">
<ele>23</ele>
<time>2020-02-17T00:03:33Z</time></trkpt>
<trkpt lat="51.798797" lon="-2.719578">
<ele>32</ele>
<time>2020-02-17T00:04:01Z</time></trkpt>
<trkpt lat="51.800182" lon="-2.719076">
<ele>25</ele>
<time>2020-02-17T00:04:30Z</time></trkpt>
<trkpt lat="51.800786" lon="-2.717085">
<ele>19</ele>
<time>2020-02-17T00:04:57Z</time></trkpt>
<trkpt lat="51.8012" lon="-2.716238">
<ele>20</ele>
<time>2020-02-17T00:05:10Z</time></trkpt>
<trkpt lat="51.80109" lon="-2.714462">
<ele>25</ele>
<time>2020-02-17T00:05:33Z</time></trkpt>
<trkpt lat="51.801171" lon="-2.713991">
<ele>26</ele>
<time>2020-02-17T00:05:39Z</time></trkpt>
<trkpt lat="51.801421" lon="-2.713693">
<ele>26</ele>
<time>2020-02-17T00:05:45Z</time></trkpt>
<trkpt lat="51.80239" lon="-2.713952">
<ele>29</ele>
<time>2020-02-17T00:06:05Z</time></trkpt>
<trkpt lat="51.803144" lon="-2.714813">
<ele>30</ele>
<time>2020-02-17T00:06:23Z</time></trkpt>
<trkpt lat="51.803367" lon="-2.714673">
<ele>27</ele>
<time>2020-02-17T00:06:28Z</time></trkpt>
<trkpt lat="51.80388" lon="-2.715001">
<ele>24</ele>
<time>2020-02-17T00:06:39Z</time></trkpt>
<trkpt lat="51.803907" lon="-2.714869">
<ele>23</ele>
<time>2020-02-17T00:06:41Z</time></trkpt>
<trkpt lat="51.805309" lon="-2.71557">
<ele>19</ele>
<time>2020-02-17T00:07:10Z</time></trkpt>
<trkpt lat="51.805652" lon="-2.715431">
<ele>19</ele>
<time>2020-02-17T00:07:17Z</time></trkpt>
<trkpt lat="51.805879" lon="-2.716211">
<ele>19</ele>
<time>2020-02-17T00:07:28Z</time></trkpt>
<trkpt lat="51.805796" lon="-2.715981">
<ele>20</ele>
<time>2020-02-17T00:07:31Z</time></trkpt>
<trkpt lat="51.806304" lon="-2.71552">
<ele>18</ele>
<time>2020-02-17T00:07:43Z</time></trkpt>
<trkpt lat="51.80793" lon="-2.714314">
<ele>19</ele>
<time>2020-02-17T00:08:19Z</time></trkpt>
<trkpt lat="51.810143" lon="-2.71311">
<ele>20</ele>
<time>2020-02-17T00:09:05Z</time></trkpt>
<trkpt lat="51.810211" lon="-2.712955">
<ele>20</ele>
<time>2020-02-17T00:09:08Z</time></trkpt>
<trkpt lat="51.81062" lon="-2.712947">
<ele>21</ele>
<time>2020-02-17T00:09:16Z</time></trkpt>
<trkpt lat="51.811012" lon="-2.713752">
<ele>22</ele>
<time>2020-02-17T00:09:29Z</time></trkpt>
<trkpt lat="51.811515" lon="-2.713019">
<ele>24</ele>
<time>2020-02-17T00:09:42Z</time></trkpt>
<trkpt lat="51.8117" lon="-2.71315">
<ele>24</ele>
<time>2020-02-17T00:09:46Z</time></trkpt>
<trkpt lat="51.812186" lon="-2.7129">
<ele>26</ele>
<time>2020-02-17T00:09:56Z</time></trkpt>
<trkpt lat="51.812489" lon="-2.71376">
<ele>28</ele>
<time>2020-02-17T00:10:09Z</time></trkpt>
<trkpt lat="51.81287" lon="-2.714238">
<ele>29</ele>
<time>2020-02-17T00:10:18Z</time></trkpt>
<trkpt lat="51.813307" lon="-2.712614">
<ele>27</ele>
<time>2020-02-17T00:10:40Z</time></trkpt>
<trkpt lat="51.814194" lon="-2.712941">
<ele>27</ele>
<time>2020-02-17T00:10:59Z</time></trkpt>
<trkpt lat="51.815767" lon="-2.713158">
<ele>28</ele>
<time>2020-02-17T00:11:30Z</time></trkpt>
<trkpt lat="51.816863" lon="-2.713106">
<ele>33</ele>
<time>2020-02-17T00:11:52Z</time></trkpt>
<trkpt lat="51.819453" lon="-2.712424">
<ele>53</ele>
<time>2020-02-17T00:12:45Z</time></trkpt>
<trkpt lat="51.82032" lon="-2.712387">
<ele>56</ele>
<time>2020-02-17T00:13:02Z</time></trkpt>
<trkpt lat="51.821818" lon="-2.712462">
<ele>66</ele>
<time>2020-02-17T00:13:32Z</time></trkpt>
<trkpt lat="51.823489" lon="-2.712872">
<ele>80</ele>
<time>2020-02-17T00:14:06Z</time></trkpt>
<trkpt lat="51.825888" lon="-2.712971">
<ele>95</ele>
<time>2020-02-17T00:14:54Z</time></trkpt>
<trkpt lat="51.827102" lon="-2.712682">
<ele>97</ele>
<time>2020-02-17T00:15:19Z</time></trkpt>
<trkpt lat="51.828333" lon="-2.713373">
<ele>91</ele>
<time>2020-02-17T00:15:45Z</time></trkpt>
<trkpt lat="51.829605" lon="-2.714398">
<ele>87</ele>
<time>2020-02-17T00:16:13Z</time></trkpt>
<trkpt lat="51.83108" lon="-2.714433">
<ele>85</ele>
<time>2020-02-17T00:16:43Z</time></trkpt>
<trkpt lat="51.832663" lon="-2.713934">
<ele>86</ele>
<time>2020-02-17T00:17:15Z</time></trkpt>
<trkpt lat="51.833444" lon="-2.713318">
<ele>92</ele>
<time>2020-02-17T00:17:33Z</time></trkpt>
<trkpt lat="51.834516" lon="-2.713199">
<ele>103</ele>
<time>2020-02-17T00:17:54Z</time></trkpt>
<trkpt lat="51.836918" lon="-2.711716">
<ele>105</ele>
<time>2020-02-17T00:18:46Z</time></trkpt>
<trkpt lat="51.837491" lon="-2.711916">
<ele>105</ele>
<time>2020-02-17T00:18:57Z</time></trkpt>
<trkpt lat="51.838893" lon="-2.713203">
<ele>98</ele>
<time>2020-02-17T00:19:30Z</time></trkpt>
<trkpt lat="51.839498" lon="-2.714054">
<ele>100</ele>
<time>2020-02-17T00:19:46Z</time></trkpt>
<trkpt lat="51.84053" lon="-2.716062">
<ele>117</ele>
<time>2020-02-17T00:20:18Z</time></trkpt>
<trkpt lat="51.842345" lon="-2.717613">
<ele>129</ele>
<time>2020-02-17T00:20:59Z</time></trkpt>
<trkpt lat="51.844636" lon="-2.718762">
<ele>145</ele>
<time>2020-02-17T00:21:47Z</time></trkpt>
<trkpt lat="51.845831" lon="-2.718486">
<ele>144</ele>
<time>2020-02-17T00:22:11Z</time></trkpt>
<trkpt lat="51.846743" lon="-2.718719">
<ele>147</ele>
<time>2020-02-17T00:22:30Z</time></trkpt>
<trkpt lat="51.847539" lon="-2.718248">
<ele>143</ele>
<time>2020-02-17T00:22:47Z</time></trkpt>
<trkpt lat="51.847805" lon="-2.718274">
<ele>145</ele>
<time>2020-02-17T00:22:52Z</time></trkpt>
<trkpt lat="51.848689" lon="-2.719603">
<ele>153</ele>
<time>2020-02-17T00:23:16Z</time></trkpt>
<trkpt lat="51.849812" lon="-2.720195">
<ele>152</ele>
<time>2020-02-17T00:23:40Z</time></trkpt>
<trkpt lat="51.851018" lon="-2.723042">
<ele>159</ele>
<time>2020-02-17T00:24:23Z</time></trkpt>
<trkpt lat="51.851567" lon="-2.723667">
<ele>161</ele>
<time>2020-02-17T00:24:36Z</time></trkpt>
<trkpt lat="51.852679" lon="-2.72416">
<ele>163</ele>
<time>2020-02-17T00:24:59Z</time></trkpt>
<trkpt lat="51.854414" lon="-2.726823">
<ele>168</ele>
<time>2020-02-17T00:25:47Z</time></trkpt>
<trkpt lat="51.855659" lon="-2.727619">
<ele>168</ele>
<time>2020-02-17T00:26:14Z</time></trkpt>
<trkpt lat="51.85742" lon="-2.728409">
<ele>169</ele>
<time>2020-02-17T00:26:51Z</time></trkpt>
<trkpt lat="51.858956" lon="-2.729855">
<ele>172</ele>
<time>2020-02-17T00:27:26Z</time></trkpt>
<trkpt lat="51.860295" lon="-2.73075">
<ele>175</ele>
<time>2020-02-17T00:27:55Z</time></trkpt>
<trkpt lat="51.861473" lon="-2.731304">
<ele>184</ele>
<time>2020-02-17T00:28:20Z</time></trkpt>
<trkpt lat="51.863738" lon="-2.732776">
<ele>192</ele>
<time>2020-02-17T00:29:09Z</time></trkpt>
<trkpt lat="51.864538" lon="-2.733098">
<ele>195</ele>
<time>2020-02-17T00:29:25Z</time></trkpt>
<trkpt lat="51.86592" lon="-2.732885">
<ele>197</ele>
<time>2020-02-17T00:29:53Z</time></trkpt>
<trkpt lat="51.86713" lon="-2.732435">
<ele>200</ele>
<time>2020-02-17T00:30:18Z</time></trkpt>
<trkpt lat="51.872513" lon="-2.734038">
<ele>198</ele>
<time>2020-02-17T00:32:08Z</time></trkpt>
<trkpt lat="51.874811" lon="-2.733409">
<ele>190</ele>
<time>2020-02-17T00:32:54Z</time></trkpt>
<trkpt lat="51.879327" lon="-2.733371">
<ele>143</ele>
<time>2020-02-17T00:34:25Z</time></trkpt>
<trkpt lat="51.88147" lon="-2.733525">
<ele>124</ele>
<time>2020-02-17T00:35:08Z</time></trkpt>
<trkpt lat="51.883841" lon="-2.732244">
<ele>101</ele>
<time>2020-02-17T00:35:58Z</time></trkpt>
<trkpt lat="51.88589" lon="-2.732528">
<ele>96</ele>
<time>2020-02-17T00:36:39Z</time></trkpt>
<trkpt lat="51.889085" lon="-2.731369">
<ele>81</ele>
<time>2020-02-17T00:37:45Z</time></trkpt>
<trkpt lat="51.890141" lon="-2.73132">
<ele>77</ele>
<time>2020-02-17T00:38:06Z</time></trkpt>
<trkpt lat="51.891622" lon="-2.731691">
<ele>75</ele>
<time>2020-02-17T00:38:36Z</time></trkpt>
<trkpt lat="51.893191" lon="-2.732568">
<ele>83</ele>
<time>2020-02-17T00:39:09Z</time></trkpt>
<trkpt lat="51.894999" lon="-2.73277">
<ele>81</ele>
<time>2020-02-17T00:39:46Z</time></trkpt>
<trkpt lat="51.896685" lon="-2.732593">
<ele>70</ele>
<time>2020-02-17T00:40:19Z</time></trkpt>
<trkpt lat="51.900965" lon="-2.731047">
<ele>83</ele>
<time>2020-02-17T00:41:47Z</time></trkpt>
<trkpt lat="51.901621" lon="-2.730741">
<ele>88</ele>
<time>2020-02-17T00:42:01Z</time></trkpt>
<trkpt lat="51.902507" lon="-2.729861">
<ele>97</ele>
<time>2020-02-17T00:42:22Z</time></trkpt>
<trkpt lat="51.902998" lon="-2.729644">
<ele>101</ele>
<time>2020-02-17T00:42:32Z</time></trkpt>
<trkpt lat="51.904403" lon="-2.730477">
<ele>110</ele>
<time>2020-02-17T00:43:02Z</time></trkpt>
<trkpt lat="51.906301" lon="-2.730907">
<ele>114</ele>
<time>2020-02-17T00:43:40Z</time></trkpt>
<trkpt lat="51.906917" lon="-2.731229">
<ele>113</ele>
<time>2020-02-17T00:43:53Z</time></trkpt>
<trkpt lat="51.912681" lon="-2.734802">
<ele>108</ele>
<time>2020-02-17T00:45:57Z</time></trkpt>
<trkpt lat="51.914314" lon="-2.735314">
<ele>116</ele>
<time>2020-02-17T00:46:30Z</time></trkpt>
<trkpt lat="51.915055" lon="-2.735157">
<ele>117</ele>
<time>2020-02-17T00:46:45Z</time></trkpt>
<trkpt lat="51.916776" lon="-2.735356">
<ele>107</ele>
<time>2020-02-17T00:47:20Z</time></trkpt>
<trkpt lat="51.919759" lon="-2.736485">
<ele>99</ele>
<time>2020-02-17T00:48:21Z</time></trkpt>
<trkpt lat="51.921453" lon="-2.736332">
<ele>90</ele>
<time>2020-02-17T00:48:55Z</time></trkpt>
<trkpt lat="51.923776" lon="-2.734938">
<ele>80</ele>
<time>2020-02-17T00:49:45Z</time></trkpt>
<trkpt lat="51.924732" lon="-2.734536">
<ele>79</ele>
<time>2020-02-17T00:50:05Z</time></trkpt>
<trkpt lat="51.925442" lon="-2.734469">
<ele>78</ele>
<time>2020-02-17T00:50:19Z</time></trkpt>
<trkpt lat="51.928655" lon="-2.734806">
<ele>92</ele>
<time>2020-02-17T00:51:23Z</time></trkpt>
<trkpt lat="51.931095" lon="-2.734126">
<ele>84</ele>
<time>2020-02-17T00:52:13Z</time></trkpt>
<trkpt lat="51.932415" lon="-2.733568">
<ele>80</ele>
<time>2020-02-17T00:52:40Z</time></trkpt>
<trkpt lat="51.934867" lon="-2.733163">
<ele>82</ele>
<time>2020-02-17T00:53:30Z</time></trkpt>
<trkpt lat="51.936867" lon="-2.733069">
<ele>83</ele>
<time>2020-02-17T00:54:10Z</time></trkpt>
<trkpt lat="51.938102" lon="-2.73272">
<ele>84</ele>
<time>2020-02-17T00:54:35Z</time></trkpt>
<trkpt lat="51.940099" lon="-2.733516">
<ele>92</ele>
<time>2020-02-17T00:55:16Z</time></trkpt>
<trkpt lat="51.94061" lon="-2.733531">
<ele>92</ele>
<time>2020-02-17T00:55:26Z</time></trkpt>
<trkpt lat="51.941751" lon="-2.733008">
<ele>87</ele>
<time>2020-02-17T00:55:50Z</time></trkpt>
<trkpt lat="51.945062" lon="-2.734037">
<ele>101</ele>
<time>2020-02-17T00:56:58Z</time></trkpt>
<trkpt lat="51.948301" lon="-2.736133">
<ele>103</ele>
<time>2020-02-17T00:58:08Z</time></trkpt>
<trkpt lat="51.949793" lon="-2.73651">
<ele>100</ele>
<time>2020-02-17T00:58:38Z</time></trkpt>
<trkpt lat="51.950544" lon="-2.736446">
<ele>101</ele>
<time>2020-02-17T00:58:53Z</time></trkpt>
<trkpt lat="51.952455" lon="-2.736703">
<ele>107</ele>
<time>2020-02-17T00:59:31Z</time></trkpt>
<trkpt lat="51.954794" lon="-2.737669">
<ele>108</ele>
<time>2020-02-17T01:00:20Z</time></trkpt>
<trkpt lat="51.955539" lon="-2.737495">
<ele>108</ele>
<time>2020-02-17T01:00:35Z</time></trkpt>
<trkpt lat="51.957051" lon="-2.735721">
<ele>118</ele>
<time>2020-02-17T01:01:12Z</time></trkpt>
<trkpt lat="51.958961" lon="-2.735198">
<ele>127</ele>
<time>2020-02-17T01:01:51Z</time></trkpt>
<trkpt lat="51.962622" lon="-2.737524">
<ele>109</ele>
<time>2020-02-17T01:03:10Z</time></trkpt>
<trkpt lat="51.963935" lon="-2.738863">
<ele>109</ele>
<time>2020-02-17T01:03:41Z</time></trkpt>
<trkpt lat="51.965338" lon="-2.739739">
<ele>114</ele>
<time>2020-02-17T01:04:11Z</time></trkpt>
<trkpt lat="51.9669" lon="-2.739713">
<ele>117</ele>
<time>2020-02-17T01:04:42Z</time></trkpt>
<trkpt lat="51.969008" lon="-2.740663">
<ele>119</ele>
<time>2020-02-17T01:05:26Z</time></trkpt>
<trkpt lat="51.970037" lon="-2.740476">
<ele>115</ele>
<time>2020-02-17T01:05:47Z</time></trkpt>
<trkpt lat="51.971807" lon="-2.739578">
<ele>110</ele>
<time>2020-02-17T01:06:24Z</time></trkpt>
<trkpt lat="51.976456" lon="-2.73937">
<ele>127</ele>
<time>2020-02-17T01:07:57Z</time></trkpt>
<trkpt lat="51.979361" lon="-2.737347">
<ele>138</ele>
<time>2020-02-17T01:09:00Z</time></trkpt>
<trkpt lat="51.980601" lon="-2.736819">
<ele>143</ele>
<time>2020-02-17T01:09:26Z</time></trkpt>
<trkpt lat="51.983539" lon="-2.736341">
<ele>147</ele>
<time>2020-02-17T01:10:25Z</time></trkpt>
<trkpt lat="51.985916" lon="-2.736673">
<ele>150</ele>
<time>2020-02-17T01:11:13Z</time></trkpt>
<trkpt lat="51.987213" lon="-2.735722">
<ele>156</ele>
<time>2020-02-17T01:11:42Z</time></trkpt>
<trkpt lat="51.98763" lon="-2.735133">
<ele>159</ele>
<time>2020-02-17T01:11:53Z</time></trkpt>
<trkpt lat="51.987785" lon="-2.734964">
<ele>160</ele>
<time>2020-02-17T01:11:56Z</time></trkpt>
<trkpt lat="51.98979" lon="-2.734258">
<ele>164</ele>
<time>2020-02-17T01:12:38Z</time></trkpt>
<trkpt lat="51.991523" lon="-2.733967">
<ele>162</ele>
<time>2020-02-17T01:13:12Z</time></trkpt>
<trkpt lat="51.996328" lon="-2.733658">
<ele>161</ele>
<time>2020-02-17T01:14:49Z</time></trkpt>
<trkpt lat="51.997564" lon="-2.734273">
<ele>161</ele>
<time>2020-02-17T01:15:15Z</time></trkpt>
<trkpt lat="51.999177" lon="-2.734771">
<ele>156</ele>
<time>2020-02-17T01:15:48Z</time></trkpt>
<trkpt lat="52.000088" lon="-2.735394">
<ele>156</ele>
<time>2020-02-17T01:16:07Z</time></trkpt>
<trkpt lat="52.001837" lon="-2.735714">
<ele>158</ele>
<time>2020-02-17T01:16:43Z</time></trkpt>
<trkpt lat="52.003297" lon="-2.736904">
<ele>152</ele>
<time>2020-02-17T01:17:15Z</time></trkpt>
<trkpt lat="52.003831" lon="-2.73711">
<ele>150</ele>
<time>2020-02-17T01:17:26Z</time></trkpt>
<trkpt lat="52.005097" lon="-2.737169">
<ele>142</ele>
<time>2020-02-17T01:17:52Z</time></trkpt>
<trkpt lat="52.005621" lon="-2.737028">
<ele>137</ele>
<time>2020-02-17T01:18:02Z</time></trkpt>
<trkpt lat="52.006339" lon="-2.737381">
<ele>130</ele>
<time>2020-02-17T01:18:17Z</time></trkpt>
<trkpt lat="52.006721" lon="-2.73712">
<ele>125</ele>
<time>2020-02-17T01:18:26Z</time></trkpt>
<trkpt lat="52.007552" lon="-2.735847">
<ele>115</ele>
<time>2020-02-17T01:18:49Z</time></trkpt>
<trkpt lat="52.00818" lon="-2.735305">
<ele>107</ele>
<time>2020-02-17T01:19:03Z</time></trkpt>
<trkpt lat="52.008507" lon="-2.735248">
<ele>103</ele>
<time>2020-02-17T01:19:10Z</time></trkpt>
<trkpt lat="52.009103" lon="-2.735488">
<ele>97</ele>
<time>2020-02-17T01:19:22Z</time></trkpt>
<trkpt lat="52.00927" lon="-2.735236">
<ele>95</ele>
<time>2020-02-17T01:19:26Z</time></trkpt>
<trkpt lat="52.009982" lon="-2.735586">
<ele>92</ele>
<time>2020-02-17T01:19:41Z</time></trkpt>
<trkpt lat="52.01082" lon="-2.735685">
<ele>89</ele>
<time>2020-02-17T01:19:58Z</time></trkpt>
<trkpt lat="52.011739" lon="-2.735551">
<ele>84</ele>
<time>2020-02-17T01:20:17Z</time></trkpt>
<trkpt lat="52.013191" lon="-2.73487">
<ele>82</ele>
<time>2020-02-17T01:20:47Z</time></trkpt>
<trkpt lat="52.016966" lon="-2.730841">
<ele>75</ele>
<time>2020-02-17T01:22:17Z</time></trkpt>
<trkpt lat="52.018589" lon="-2.729535">
<ele>75</ele>
<time>2020-02-17T01:22:54Z</time></trkpt>
<trkpt lat="52.019971" lon="-2.727646">
<ele>71</ele>
<time>2020-02-17T01:23:30Z</time></trkpt>
<trkpt lat="52.024821" lon="-2.723525">
<ele>69</ele>
<time>2020-02-17T01:25:20Z</time></trkpt>
<trkpt lat="52.025161" lon="-2.723438">
<ele>69</ele>
<time>2020-02-17T01:25:26Z</time></trkpt>
<trkpt lat="52.025439" lon="-2.723555">
<ele>68</ele>
<time>2020-02-17T01:25:32Z</time></trkpt>
<trkpt lat="52.025585" lon="-2.723268">
<ele>68</ele>
<time>2020-02-17T01:25:37Z</time></trkpt>
<trkpt lat="52.025942" lon="-2.723062">
<ele>69</ele>
<time>2020-02-17T01:25:44Z</time></trkpt>
<trkpt lat="52.028311" lon="-2.722464">
<ele>64</ele>
<time>2020-02-17T01:26:32Z</time></trkpt>
<trkpt lat="52.030543" lon="-2.722182">
<ele>63</ele>
<time>2020-02-17T01:27:17Z</time></trkpt>
<trkpt lat="52.032022" lon="-2.72236">
<ele>71</ele>
<time>2020-02-17T01:27:47Z</time></trkpt>
<trkpt lat="52.033327" lon="-2.722754">
<ele>75</ele>
<time>2020-02-17T01:28:14Z</time></trkpt>
<trkpt lat="52.034218" lon="-2.722743">
<ele>75</ele>
<time>2020-02-17T01:28:31Z</time></trkpt>
<trkpt lat="52.035627" lon="-2.722447">
<ele>74</ele>
<time>2020-02-17T01:29:00Z</time></trkpt>
<trkpt lat="52.042699" lon="-2.720184">
<ele>58</ele>
<time>2020-02-17T01:31:24Z</time></trkpt>
<trkpt lat="52.043966" lon="-2.720212">
<ele>58</ele>
<time>2020-02-17T01:31:50Z</time></trkpt>
<trkpt lat="52.045113" lon="-2.72071">
<ele>55</ele>
<time>2020-02-17T01:32:14Z</time></trkpt>
<trkpt lat="52.045765" lon="-2.720718">
<ele>55</ele>
<time>2020-02-17T01:32:27Z</time></trkpt>
<trkpt lat="52.047277" lon="-2.720194">
<ele>56</ele>
<time>2020-02-17T01:32:58Z</time></trkpt>
<trkpt lat="52.04796" lon="-2.719525">
<ele>55</ele>
<time>2020-02-17T01:33:14Z</time></trkpt>
<trkpt lat="52.048447" lon="-2.719277">
<ele>54</ele>
<time>2020-02-17T01:33:24Z</time></trkpt>
<trkpt lat="52.049039" lon="-2.719711">
<ele>53</ele>
<time>2020-02-17T01:33:37Z</time></trkpt>
<trkpt lat="52.050071" lon="-2.71935">
<ele>53</ele>
<time>2020-02-17T01:33:58Z</time></trkpt>
<trkpt lat="52.053532" lon="-2.720307">
<ele>56</ele>
<time>2020-02-17T01:35:08Z</time></trkpt>
<trkpt lat="52.055856" lon="-2.720651">
<ele>60</ele>
<time>2020-02-17T01:35:55Z</time></trkpt>
<trkpt lat="52.056785" lon="-2.720641">
<ele>58</ele>
<time>2020-02-17T01:36:14Z</time></trkpt>
<trkpt lat="52.057813" lon="-2.720059">
<ele>59</ele>
<time>2020-02-17T01:36:35Z</time></trkpt>
<trkpt lat="52.061079" lon="-2.718352">
<ele>54</ele>
<time>2020-02-17T01:37:44Z</time></trkpt>
<trkpt lat="52.063008" lon="-2.71751">
<ele>55</ele>
<time>2020-02-17T01:38:24Z</time></trkpt>
<trkpt lat="52.064266" lon="-2.716728">
<ele>55</ele>
<time>2020-02-17T01:38:51Z</time></trkpt>
<trkpt lat="52.064425" lon="-2.716783">
<ele>55</ele>
<time>2020-02-17T01:38:54Z</time></trkpt>
<trkpt lat="52.065177" lon="-2.718757">
<ele>56</ele>
<time>2020-02-17T01:39:23Z</time></trkpt>
<trkpt lat="52.065985" lon="-2.721567">
<ele>56</ele>
<time>2020-02-17T01:40:01Z</time></trkpt>
<trkpt lat="52.065964" lon="-2.721758">
<ele>56</ele>
<time>2020-02-17T01:40:04Z</time></trkpt>
<trkpt lat="52.066347" lon="-2.721882">
<ele>56</ele>
<time>2020-02-17T01:40:11Z</time></trkpt>
<trkpt lat="52.068124" lon="-2.722213">
<ele>55</ele>
<time>2020-02-17T01:40:47Z</time></trkpt>
<trkpt lat="52.07044" lon="-2.72231">
<ele>57</ele>
<time>2020-02-17T01:41:34Z</time></trkpt>
<trkpt lat="52.073594" lon="-2.721994">
<ele>64</ele>
<time>2020-02-17T01:42:37Z</time></trkpt>
<trkpt lat="52.074947" lon="-2.721993">
<ele>72</ele>
<time>2020-02-17T01:43:04Z</time></trkpt>
<trkpt lat="52.075127" lon="-2.722254">
<ele>73</ele>
<time>2020-02-17T01:43:09Z</time></trkpt>
<trkpt lat="52.075307" lon="-2.721964">
<ele>73</ele>
<time>2020-02-17T01:43:14Z</time></trkpt>
<trkpt lat="52.077555" lon="-2.72252">
<ele>74</ele>
<time>2020-02-17T01:44:00Z</time></trkpt>
<trkpt lat="52.079197" lon="-2.722063">
<ele>79</ele>
<time>2020-02-17T01:44:33Z</time></trkpt>
<trkpt lat="52.080368" lon="-2.721985">
<ele>82</ele>
<time>2020-02-17T01:44:57Z</time></trkpt>
<trkpt lat="52.084159" lon="-2.722666">
<ele>93</ele>
<time>2020-02-17T01:46:13Z</time></trkpt>
<trkpt lat="52.086137" lon="-2.723101">
<ele>100</ele>
<time>2020-02-17T01:46:53Z</time></trkpt>
<trkpt lat="52.08787" lon="-2.723729">
<ele>102</ele>
<time>2020-02-17T01:47:28Z</time></trkpt>
<trkpt lat="52.08924" lon="-2.72466">
<ele>102</ele>
<time>2020-02-17T01:47:58Z</time></trkpt>
<trkpt lat="52.094291" lon="-2.728785">
<ele>86</ele>
<time>2020-02-17T01:49:51Z</time></trkpt>
<trkpt lat="52.095006" lon="-2.729186">
<ele>83</ele>
<time>2020-02-17T01:50:07Z</time></trkpt>
<trkpt lat="52.099163" lon="-2.729301">
<ele>67</ele>
<time>2020-02-17T01:51:30Z</time></trkpt>
<trkpt lat="52.101614" lon="-2.728117">
<ele>72</ele>
<time>2020-02-17T01:52:21Z</time></trkpt>
<trkpt lat="52.10259" lon="-2.728064">
<ele>70</ele>
<time>2020-02-17T01:52:41Z</time></trkpt>
<trkpt lat="52.109317" lon="-2.729907">
<ele>59</ele>
<time>2020-02-17T01:54:57Z</time></trkpt>
<trkpt lat="52.111344" lon="-2.731104">
<ele>58</ele>
<time>2020-02-17T01:55:41Z</time></trkpt>
<trkpt lat="52.112073" lon="-2.731379">
<ele>58</ele>
<time>2020-02-17T01:55:56Z</time></trkpt>
<trkpt lat="52.116117" lon="-2.731757">
<ele>63</ele>
<time>2020-02-17T01:57:17Z</time></trkpt>
<trkpt lat="52.118216" lon="-2.73234">
<ele>57</ele>
<time>2020-02-17T01:57:59Z</time></trkpt>
<trkpt lat="52.118986" lon="-2.732378">
<ele>57</ele>
<time>2020-02-17T01:58:15Z</time></trkpt>
<trkpt lat="52.121633" lon="-2.731652">
<ele>58</ele>
<time>2020-02-17T01:59:09Z</time></trkpt>
<trkpt lat="52.124253" lon="-2.731812">
<ele>57</ele>
<time>2020-02-17T02:00:01Z</time></trkpt>
<trkpt lat="52.126674" lon="-2.731695">
<ele>58</ele>
<time>2020-02-17T02:00:50Z</time></trkpt>
<trkpt lat="52.128466" lon="-2.731411">
<ele>58</ele>
<time>2020-02-17T02:01:26Z</time></trkpt>
<trkpt lat="52.129812" lon="-2.731006">
<ele>59</ele>
<time>2020-02-17T02:01:53Z</time></trkpt>
<trkpt lat="52.135029" lon="-2.730348">
<ele>58</ele>
<time>2020-02-17T02:03:38Z</time></trkpt>
<trkpt lat="52.13833" lon="-2.729603">
<ele>59</ele>
<time>2020-02-17T02:04:45Z</time></trkpt>
<trkpt lat="52.145335" lon="-2.727408">
<ele>62</ele>
<time>2020-02-17T02:07:08Z</time></trkpt>
<trkpt lat="52.148746" lon="-2.72717">
<ele>70</ele>
<time>2020-02-17T02:08:16Z</time></trkpt>
<trkpt lat="52.149536" lon="-2.726331">
<ele>76</ele>
<time>2020-02-17T02:08:35Z</time></trkpt>
<trkpt lat="52.151105" lon="-2.722605">
<ele>102</ele>
<time>2020-02-17T02:09:31Z</time></trkpt>
<trkpt lat="52.15262" lon="-2.721042">
<ele>117</ele>
<time>2020-02-17T02:10:07Z</time></trkpt>
<trkpt lat="52.154381" lon="-2.718531">
<ele>124</ele>
<time>2020-02-17T02:10:53Z</time></trkpt>
<trkpt lat="52.154803" lon="-2.71814">
<ele>126</ele>
<time>2020-02-17T02:11:03Z</time></trkpt>
<trkpt lat="52.155223" lon="-2.718118">
<ele>131</ele>
<time>2020-02-17T02:11:12Z</time></trkpt>
<trkpt lat="52.155586" lon="-2.718472">
<ele>137</ele>
<time>2020-02-17T02:11:20Z</time></trkpt>
<trkpt lat="52.155953" lon="-2.719476">
<ele>145</ele>
<time>2020-02-17T02:11:34Z</time></trkpt>
<trkpt lat="52.157079" lon="-2.721459">
<ele>159</ele>
<time>2020-02-17T02:12:08Z</time></trkpt>
<trkpt lat="52.157366" lon="-2.721677">
<ele>160</ele>
<time>2020-02-17T02:12:14Z</time></trkpt>
<trkpt lat="52.158679" lon="-2.721682">
<ele>165</ele>
<time>2020-02-17T02:12:40Z</time></trkpt>
<trkpt lat="52.160285" lon="-2.722349">
<ele>167</ele>
<time>2020-02-17T02:13:14Z</time></trkpt>
<trkpt lat="52.160611" lon="-2.722346">
<ele>167</ele>
<time>2020-02-17T02:13:20Z</time></trkpt>
<trkpt lat="52.161546" lon="-2.721826">
<ele>159</ele>
<time>2020-02-17T02:13:40Z</time></trkpt>
<trkpt lat="52.162621" lon="-2.719807">
<ele>153</ele>
<time>2020-02-17T02:14:13Z</time></trkpt>
<trkpt lat="52.163125" lon="-2.719354">
<ele>151</ele>
<time>2020-02-17T02:14:24Z</time></trkpt>
<trkpt lat="52.163895" lon="-2.719216">
<ele>147</ele>
<time>2020-02-17T02:14:40Z</time></trkpt>
<trkpt lat="52.165023" lon="-2.719873">
<ele>137</ele>
<time>2020-02-17T02:15:04Z</time></trkpt>
<trkpt lat="52.1656" lon="-2.720008">
<ele>131</ele>
<time>2020-02-17T02:15:15Z</time></trkpt>
<trkpt lat="52.168001" lon="-2.719393">
<ele>117</ele>
<time>2020-02-17T02:16:04Z</time></trkpt>
<trkpt lat="52.170441" lon="-2.719371">
<ele>93</ele>
<time>2020-02-17T02:16:53Z</time></trkpt>
<trkpt lat="52.171178" lon="-2.718902">
<ele>83</ele>
<time>2020-02-17T02:17:09Z</time></trkpt>
<trkpt lat="52.172149" lon="-2.71705">
<ele>73</ele>
<time>2020-02-17T02:17:39Z</time></trkpt>
<trkpt lat="52.172802" lon="-2.716163">
<ele>70</ele>
<time>2020-02-17T02:17:56Z</time></trkpt>
<trkpt lat="52.173851" lon="-2.71544">
<ele>69</ele>
<time>2020-02-17T02:18:19Z</time></trkpt>
<trkpt lat="52.176005" lon="-2.714779">
<ele>69</ele>
<time>2020-02-17T02:19:03Z</time></trkpt>
<trkpt lat="52.177303" lon="-2.714552">
<ele>72</ele>
<time>2020-02-17T02:19:29Z</time></trkpt>
<trkpt lat="52.178257" lon="-2.714578">
<ele>72</ele>
<time>2020-02-17T02:19:48Z</time></trkpt>
<trkpt lat="52.178497" lon="-2.71462">
<ele>73</ele>
<time>2020-02-17T02:19:53Z</time></trkpt>
<trkpt lat="52.178663" lon="-2.714815">
<ele>73</ele>
<time>2020-02-17T02:19:57Z</time></trkpt>
<trkpt lat="52.178738" lon="-2.714934">
<ele>73</ele>
<time>2020-02-17T02:19:59Z</time></trkpt>
<trkpt lat="52.17912" lon="-2.714786">
<ele>73</ele>
<time>2020-02-17T02:20:07Z</time></trkpt>
<trkpt lat="52.182234" lon="-2.715939">
<ele>79</ele>
<time>2020-02-17T02:21:11Z</time></trkpt>
<trkpt lat="52.185064" lon="-2.715832">
<ele>74</ele>
<time>2020-02-17T02:22:08Z</time></trkpt>
<trkpt lat="52.186685" lon="-2.715969">
<ele>73</ele>
<time>2020-02-17T02:22:40Z</time></trkpt>
<trkpt lat="52.188595" lon="-2.716853">
<ele>71</ele>
<time>2020-02-17T02:23:20Z</time></trkpt>
<trkpt lat="52.191226" lon="-2.718776">
<ele>69</ele>
<time>2020-02-17T02:24:18Z</time></trkpt>
<trkpt lat="52.192367" lon="-2.71917">
<ele>68</ele>
<time>2020-02-17T02:24:41Z</time></trkpt>
<trkpt lat="52.193562" lon="-2.719213">
<ele>70</ele>
<time>2020-02-17T02:25:05Z</time></trkpt>
<trkpt lat="52.196834" lon="-2.718561">
<ele>72</ele>
<time>2020-02-17T02:26:11Z</time></trkpt>
<trkpt lat="52.197992" lon="-2.718655">
<ele>70</ele>
<time>2020-02-17T02:26:34Z</time></trkpt>
<trkpt lat="52.199891" lon="-2.719093">
<ele>66</ele>
<time>2020-02-17T02:27:13Z</time></trkpt>
<trkpt lat="52.202084" lon="-2.719874">
<ele>65</ele>
<time>2020-02-17T02:27:58Z</time></trkpt>
<trkpt lat="52.215812" lon="-2.725625">
<ele>67</ele>
<time>2020-02-17T02:32:42Z</time></trkpt>
<trkpt lat="52.216964" lon="-2.725994">
<ele>67</ele>
<time>2020-02-17T02:33:05Z</time></trkpt>
<trkpt lat="52.217663" lon="-2.726045">
<ele>67</ele>
<time>2020-02-17T02:33:19Z</time></trkpt>
<trkpt lat="52.22036" lon="-2.725788">
<ele>69</ele>
<time>2020-02-17T02:34:13Z</time></trkpt>
<trkpt lat="52.220601" lon="-2.72594">
<ele>69</ele>
<time>2020-02-17T02:34:18Z</time></trkpt>
<trkpt lat="52.22084" lon="-2.726491">
<ele>69</ele>
<time>2020-02-17T02:34:27Z</time></trkpt>
<trkpt lat="52.221718" lon="-2.726365">
<ele>70</ele>
<time>2020-02-17T02:34:44Z</time></trkpt>
<trkpt lat="52.230029" lon="-2.729882">
<ele>70</ele>
<time>2020-02-17T02:37:36Z</time></trkpt>
<trkpt lat="52.232233" lon="-2.730102">
<ele>72</ele>
<time>2020-02-17T02:38:21Z</time></trkpt>
<trkpt lat="52.232443" lon="-2.730367">
<ele>72</ele>
<time>2020-02-17T02:38:26Z</time></trkpt>
<trkpt lat="52.232612" lon="-2.730583">
<ele>72</ele>
<time>2020-02-17T02:38:30Z</time></trkpt>
<trkpt lat="52.233809" lon="-2.727676">
<ele>71</ele>
<time>2020-02-17T02:39:13Z</time></trkpt>
<trkpt lat="52.236009" lon="-2.72558">
<ele>71</ele>
<time>2020-02-17T02:40:04Z</time></trkpt>
<trkpt lat="52.236761" lon="-2.724623">
<ele>72</ele>
<time>2020-02-17T02:40:23Z</time></trkpt>
<trkpt lat="52.23917" lon="-2.718601">
<ele>74</ele>
<time>2020-02-17T02:41:52Z</time></trkpt>
<trkpt lat="52.242613" lon="-2.714706">
<ele>79</ele>
<time>2020-02-17T02:43:16Z</time></trkpt>
<trkpt lat="52.243626" lon="-2.713763">
<ele>85</ele>
<time>2020-02-17T02:43:39Z</time></trkpt>
<trkpt lat="52.244346" lon="-2.71359">
<ele>88</ele>
<time>2020-02-17T02:43:54Z</time></trkpt>
<trkpt lat="52.245214" lon="-2.713981">
<ele>89</ele>
<time>2020-02-17T02:44:12Z</time></trkpt>
<trkpt lat="52.247605" lon="-2.716605">
<ele>92</ele>
<time>2020-02-17T02:45:09Z</time></trkpt>
<trkpt lat="52.250302" lon="-2.718692">
<ele>85</ele>
<time>2020-02-17T02:46:09Z</time></trkpt>
<trkpt lat="52.251251" lon="-2.71903">
<ele>85</ele>
<time>2020-02-17T02:46:29Z</time></trkpt>
<trkpt lat="52.252427" lon="-2.719138">
<ele>85</ele>
<time>2020-02-17T02:46:52Z</time></trkpt>
<trkpt lat="52.253666" lon="-2.718795">
<ele>90</ele>
<time>2020-02-17T02:47:17Z</time></trkpt>
<trkpt lat="52.254721" lon="-2.718217">
<ele>94</ele>
<time>2020-02-17T02:47:40Z</time></trkpt>
<trkpt lat="52.258696" lon="-2.715797">
<ele>100</ele>
<time>2020-02-17T02:49:05Z</time></trkpt>
<trkpt lat="52.260629" lon="-2.714208">
<ele>99</ele>
<time>2020-02-17T02:49:48Z</time></trkpt>
<trkpt lat="52.262167" lon="-2.714218">
<ele>99</ele>
<time>2020-02-17T02:50:19Z</time></trkpt>
<trkpt lat="52.264304" lon="-2.713893">
<ele>101</ele>
<time>2020-02-17T02:51:02Z</time></trkpt>
<trkpt lat="52.266258" lon="-2.71444">
<ele>109</ele>
<time>2020-02-17T02:51:42Z</time></trkpt>
<trkpt lat="52.268472" lon="-2.71385">
<ele>121</ele>
<time>2020-02-17T02:52:27Z</time></trkpt>
<trkpt lat="52.268911" lon="-2.713641">
<ele>121</ele>
<time>2020-02-17T02:52:36Z</time></trkpt>
<trkpt lat="52.270409" lon="-2.711923">
<ele>124</ele>
<time>2020-02-17T02:53:12Z</time></trkpt>
<trkpt lat="52.271255" lon="-2.711313">
<ele>122</ele>
<time>2020-02-17T02:53:31Z</time></trkpt>
<trkpt lat="52.272182" lon="-2.710281">
<ele>125</ele>
<time>2020-02-17T02:53:53Z</time></trkpt>
<trkpt lat="52.272487" lon="-2.710192">
<ele>124</ele>
<time>2020-02-17T02:54:00Z</time></trkpt>
<trkpt lat="52.273254" lon="-2.710394">
<ele>122</ele>
<time>2020-02-17T02:54:15Z</time></trkpt>
<trkpt lat="52.274048" lon="-2.711338">
<ele>120</ele>
<time>2020-02-17T02:54:35Z</time></trkpt>
<trkpt lat="52.274485" lon="-2.711584">
<ele>116</ele>
<time>2020-02-17T02:54:44Z</time></trkpt>
<trkpt lat="52.276134" lon="-2.711875">
<ele>110</ele>
<time>2020-02-17T02:55:17Z</time></trkpt>
<trkpt lat="52.278522" lon="-2.712669">
<ele>110</ele>
<time>2020-02-17T02:56:06Z</time></trkpt>
<trkpt lat="52.282738" lon="-2.709451">
<ele>116</ele>
<time>2020-02-17T02:57:39Z</time></trkpt>
<trkpt lat="52.285664" lon="-2.708184">
<ele>113</ele>
<time>2020-02-17T02:58:40Z</time></trkpt>
<trkpt lat="52.287036" lon="-2.707242">
<ele>112</ele>
<time>2020-02-17T02:59:10Z</time></trkpt>
<trkpt lat="52.288394" lon="-2.705807">
<ele>114</ele>
<time>2020-02-17T02:59:42Z</time></trkpt>
<trkpt lat="52.292431" lon="-2.700255">
<ele>103</ele>
<time>2020-02-17T03:01:28Z</time></trkpt>
<trkpt lat="52.293553" lon="-2.699043">
<ele>100</ele>
<time>2020-02-17T03:01:55Z</time></trkpt>
<trkpt lat="52.298014" lon="-2.696597">
<ele>103</ele>
<time>2020-02-17T03:03:29Z</time></trkpt>
<trkpt lat="52.299433" lon="-2.696235">
<ele>105</ele>
<time>2020-02-17T03:03:58Z</time></trkpt>
<trkpt lat="52.30019" lon="-2.696216">
<ele>104</ele>
<time>2020-02-17T03:04:13Z</time></trkpt>
<trkpt lat="52.301856" lon="-2.696652">
<ele>95</ele>
<time>2020-02-17T03:04:47Z</time></trkpt>
<trkpt lat="52.304528" lon="-2.698151">
<ele>81</ele>
<time>2020-02-17T03:05:44Z</time></trkpt>
<trkpt lat="52.305583" lon="-2.698567">
<ele>78</ele>
<time>2020-02-17T03:06:05Z</time></trkpt>
<trkpt lat="52.307334" lon="-2.699">
<ele>75</ele>
<time>2020-02-17T03:06:41Z</time></trkpt>
<trkpt lat="52.30839" lon="-2.699442">
<ele>75</ele>
<time>2020-02-17T03:07:03Z</time></trkpt>
<trkpt lat="52.309153" lon="-2.700032">
<ele>74</ele>
<time>2020-02-17T03:07:20Z</time></trkpt>
<trkpt lat="52.310134" lon="-2.701149">
<ele>74</ele>
<time>2020-02-17T03:07:43Z</time></trkpt>
<trkpt lat="52.312177" lon="-2.70466">
<ele>76</ele>
<time>2020-02-17T03:08:43Z</time></trkpt>
<trkpt lat="52.314536" lon="-2.707174">
<ele>75</ele>
<time>2020-02-17T03:09:39Z</time></trkpt>
<trkpt lat="52.317684" lon="-2.708114">
<ele>75</ele>
<time>2020-02-17T03:10:43Z</time></trkpt>
<trkpt lat="52.321363" lon="-2.710433">
<ele>75</ele>
<time>2020-02-17T03:12:02Z</time></trkpt>
<trkpt lat="52.323973" lon="-2.711061">
<ele>75</ele>
<time>2020-02-17T03:12:55Z</time></trkpt>
<trkpt lat="52.327049" lon="-2.712737">
<ele>75</ele>
<time>2020-02-17T03:14:00Z</time></trkpt>
<trkpt lat="52.328185" lon="-2.712984">
<ele>74</ele>
<time>2020-02-17T03:14:23Z</time></trkpt>
<trkpt lat="52.333094" lon="-2.712119">
<ele>76</ele>
<time>2020-02-17T03:16:02Z</time></trkpt>
<trkpt lat="52.335451" lon="-2.712346">
<ele>80</ele>
<time>2020-02-17T03:16:49Z</time></trkpt>
<trkpt lat="52.337929" lon="-2.712092">
<ele>81</ele>
<time>2020-02-17T03:17:39Z</time></trkpt>
<trkpt lat="52.338344" lon="-2.712283">
<ele>82</ele>
<time>2020-02-17T03:17:48Z</time></trkpt>
<trkpt lat="52.340231" lon="-2.713848">
<ele>76</ele>
<time>2020-02-17T03:18:30Z</time></trkpt>
<trkpt lat="52.345615" lon="-2.71998">
<ele>89</ele>
<time>2020-02-17T03:20:42Z</time></trkpt>
<trkpt lat="52.346313" lon="-2.720633">
<ele>91</ele>
<time>2020-02-17T03:20:58Z</time></trkpt>
<trkpt lat="52.347204" lon="-2.721148">
<ele>93</ele>
<time>2020-02-17T03:21:17Z</time></trkpt>
<trkpt lat="52.350985" lon="-2.721709">
<ele>91</ele>
<time>2020-02-17T03:22:33Z</time></trkpt>
<trkpt lat="52.352027" lon="-2.721591">
<ele>94</ele>
<time>2020-02-17T03:22:54Z</time></trkpt>
<trkpt lat="52.361924" lon="-2.718427">
<ele>108</ele>
<time>2020-02-17T03:26:16Z</time></trkpt>
<trkpt lat="52.363157" lon="-2.717291">
<ele>91</ele>
<time>2020-02-17T03:26:44Z</time></trkpt>
<trkpt lat="52.363526" lon="-2.71715">
<ele>86</ele>
<time>2020-02-17T03:26:52Z</time></trkpt>
<trkpt lat="52.364488" lon="-2.717477">
<ele>83</ele>
<time>2020-02-17T03:27:11Z</time></trkpt>
<trkpt lat="52.365128" lon="-2.71789">
<ele>89</ele>
<time>2020-02-17T03:27:25Z</time></trkpt>
<trkpt lat="52.365246" lon="-2.718038">
<ele>91</ele>
<time>2020-02-17T03:27:28Z</time></trkpt>
<trkpt lat="52.366984" lon="-2.718667">
<ele>106</ele>
<time>2020-02-17T03:28:04Z</time></trkpt>
<trkpt lat="52.367658" lon="-2.719021">
<ele>111</ele>
<time>2020-02-17T03:28:18Z</time></trkpt>
<trkpt lat="52.367607" lon="-2.719219">
<ele>112</ele>
<time>2020-02-17T03:28:21Z</time></trkpt>
<trkpt lat="52.367716" lon="-2.719271">
<ele>111</ele>
<time>2020-02-17T03:28:23Z</time></trkpt>
<trkpt lat="52.367685" lon="-2.719431">
<ele>111</ele>
<time>2020-02-17T03:28:25Z</time></trkpt>
<trkpt lat="52.367757" lon="-2.719478">
<ele>111</ele>
<time>2020-02-17T03:28:26Z</time></trkpt>
<trkpt lat="52.36782" lon="-2.719204">
<ele>111</ele>
<time>2020-02-17T03:28:30Z</time></trkpt>
<trkpt lat="52.368773" lon="-2.719602">
<ele>102</ele>
<time>2020-02-17T03:28:50Z</time></trkpt>
<trkpt lat="52.368661" lon="-2.720607">
<ele>97</ele>
<time>2020-02-17T03:29:02Z</time></trkpt>
<trkpt lat="52.368895" lon="-2.720733">
<ele>93</ele>
<time>2020-02-17T03:29:07Z</time></trkpt>
<trkpt lat="52.369581" lon="-2.72112">
<ele>86</ele>
<time>2020-02-17T03:29:22Z</time></trkpt>
<trkpt lat="52.371057" lon="-2.722245">
<ele>84</ele>
<time>2020-02-17T03:29:54Z</time></trkpt>
<trkpt lat="52.371477" lon="-2.722563">
<ele>84</ele>
<time>2020-02-17T03:30:04Z</time></trkpt>
<trkpt lat="52.372591" lon="-2.722864">
<ele>82</ele>
<time>2020-02-17T03:30:26Z</time></trkpt>
<trkpt lat="52.372653" lon="-2.722952">
<ele>82</ele>
<time>2020-02-17T03:30:28Z</time></trkpt>
<trkpt lat="52.372798" lon="-2.723037">
<ele>83</ele>
<time>2020-02-17T03:30:31Z</time></trkpt>
<trkpt lat="52.3739" lon="-2.722828">
<ele>86</ele>
<time>2020-02-17T03:30:53Z</time></trkpt>
<trkpt lat="52.374043" lon="-2.722626">
<ele>86</ele>
<time>2020-02-17T03:30:57Z</time></trkpt>
<trkpt lat="52.375065" lon="-2.72346">
<ele>88</ele>
<time>2020-02-17T03:31:20Z</time></trkpt>
<trkpt lat="52.379783" lon="-2.728415">
<ele>91</ele>
<time>2020-02-17T03:33:12Z</time></trkpt>
<trkpt lat="52.380812" lon="-2.730005">
<ele>93</ele>
<time>2020-02-17T03:33:40Z</time></trkpt>
<trkpt lat="52.381815" lon="-2.732267">
<ele>93</ele>
<time>2020-02-17T03:34:15Z</time></trkpt>
<trkpt lat="52.382592" lon="-2.733589">
<ele>94</ele>
<time>2020-02-17T03:34:37Z</time></trkpt>
<trkpt lat="52.385241" lon="-2.73653">
<ele>93</ele>
<time>2020-02-17T03:35:41Z</time></trkpt>
<trkpt lat="52.386961" lon="-2.739011">
<ele>94</ele>
<time>2020-02-17T03:36:27Z</time></trkpt>
<trkpt lat="52.388012" lon="-2.74113">
<ele>95</ele>
<time>2020-02-17T03:37:01Z</time></trkpt>
<trkpt lat="52.38858" lon="-2.743055">
<ele>98</ele>
<time>2020-02-17T03:37:27Z</time></trkpt>
<trkpt lat="52.389943" lon="-2.742457">
<ele>92</ele>
<time>2020-02-17T03:37:55Z</time></trkpt>
<trkpt lat="52.396595" lon="-2.745518">
<ele>96</ele>
<time>2020-02-17T03:40:13Z</time></trkpt>
<trkpt lat="52.39764" lon="-2.746266">
<ele>92</ele>
<time>2020-02-17T03:40:36Z</time></trkpt>
<trkpt lat="52.399519" lon="-2.748094">
<ele>90</ele>
<time>2020-02-17T03:41:20Z</time></trkpt>
<trkpt lat="52.400276" lon="-2.748558">
<ele>90</ele>
<time>2020-02-17T03:41:36Z</time></trkpt>
<trkpt lat="52.400697" lon="-2.748581">
<ele>90</ele>
<time>2020-02-17T03:41:45Z</time></trkpt>
<trkpt lat="52.402216" lon="-2.74818">
<ele>91</ele>
<time>2020-02-17T03:42:16Z</time></trkpt>
<trkpt lat="52.404352" lon="-2.748939">
<ele>92</ele>
<time>2020-02-17T03:42:59Z</time></trkpt>
<trkpt lat="52.406465" lon="-2.748386">
<ele>92</ele>
<time>2020-02-17T03:43:42Z</time></trkpt>
<trkpt lat="52.406916" lon="-2.748453">
<ele>92</ele>
<time>2020-02-17T03:43:51Z</time></trkpt>
<trkpt lat="52.408827" lon="-2.750561">
<ele>95</ele>
<time>2020-02-17T03:44:37Z</time></trkpt>
<trkpt lat="52.409864" lon="-2.752053">
<ele>95</ele>
<time>2020-02-17T03:45:05Z</time></trkpt>
<trkpt lat="52.410379" lon="-2.75324">
<ele>96</ele>
<time>2020-02-17T03:45:23Z</time></trkpt>
<trkpt lat="52.41094" lon="-2.753651">
<ele>95</ele>
<time>2020-02-17T03:45:35Z</time></trkpt>
<trkpt lat="52.411325" lon="-2.753692">
<ele>95</ele>
<time>2020-02-17T03:45:43Z</time></trkpt>
<trkpt lat="52.41345" lon="-2.753106">
<ele>95</ele>
<time>2020-02-17T03:46:26Z</time></trkpt>
<trkpt lat="52.417593" lon="-2.752864">
<ele>97</ele>
<time>2020-02-17T03:47:49Z</time></trkpt>
<trkpt lat="52.418378" lon="-2.752642">
<ele>97</ele>
<time>2020-02-17T03:48:05Z</time></trkpt>
<trkpt lat="52.419871" lon="-2.752795">
<ele>102</ele>
<time>2020-02-17T03:48:35Z</time></trkpt>
<trkpt lat="52.421916" lon="-2.752229">
<ele>101</ele>
<time>2020-02-17T03:49:17Z</time></trkpt>
<trkpt lat="52.423174" lon="-2.752381">
<ele>103</ele>
<time>2020-02-17T03:49:42Z</time></trkpt>
<trkpt lat="52.425986" lon="-2.751605">
<ele>101</ele>
<time>2020-02-17T03:50:39Z</time></trkpt>
<trkpt lat="52.427263" lon="-2.752068">
<ele>103</ele>
<time>2020-02-17T03:51:05Z</time></trkpt>
<trkpt lat="52.428962" lon="-2.753236">
<ele>105</ele>
<time>2020-02-17T03:51:42Z</time></trkpt>
<trkpt lat="52.429987" lon="-2.753451">
<ele>106</ele>
<time>2020-02-17T03:52:03Z</time></trkpt>
<trkpt lat="52.430436" lon="-2.753382">
<ele>105</ele>
<time>2020-02-17T03:52:12Z</time></trkpt>
<trkpt lat="52.434236" lon="-2.751536">
<ele>105</ele>
<time>2020-02-17T03:53:31Z</time></trkpt>
<trkpt lat="52.434975" lon="-2.751596">
<ele>105</ele>
<time>2020-02-17T03:53:46Z</time></trkpt>
<trkpt lat="52.436615" lon="-2.753348">
<ele>107</ele>
<time>2020-02-17T03:54:25Z</time></trkpt>
<trkpt lat="52.437482" lon="-2.753931">
<ele>108</ele>
<time>2020-02-17T03:54:44Z</time></trkpt>
<trkpt lat="52.438238" lon="-2.754107">
<ele>109</ele>
<time>2020-02-17T03:54:59Z</time></trkpt>
<trkpt lat="52.438846" lon="-2.754457">
<ele>110</ele>
<time>2020-02-17T03:55:12Z</time></trkpt>
<trkpt lat="52.442879" lon="-2.757941">
<ele>118</ele>
<time>2020-02-17T03:56:44Z</time></trkpt>
<trkpt lat="52.443503" lon="-2.758261">
<ele>122</ele>
<time>2020-02-17T03:56:57Z</time></trkpt>
<trkpt lat="52.445187" lon="-2.758531">
<ele>124</ele>
<time>2020-02-17T03:57:31Z</time></trkpt>
<trkpt lat="52.445528" lon="-2.758496">
<ele>123</ele>
<time>2020-02-17T03:57:38Z</time></trkpt>
<trkpt lat="52.44638" lon="-2.75799">
<ele>124</ele>
<time>2020-02-17T03:57:56Z</time></trkpt>
<trkpt lat="52.447061" lon="-2.758021">
<ele>125</ele>
<time>2020-02-17T03:58:09Z</time></trkpt>
<trkpt lat="52.447457" lon="-2.760508">
<ele>124</ele>
<time>2020-02-17T03:58:41Z</time></trkpt>
<trkpt lat="52.448739" lon="-2.764113">
<ele>133</ele>
<time>2020-02-17T03:59:32Z</time></trkpt>
<trkpt lat="52.44924" lon="-2.76453">
<ele>137</ele>
<time>2020-02-17T03:59:43Z</time></trkpt>
<trkpt lat="52.450055" lon="-2.763845">
<ele>133</ele>
<time>2020-02-17T04:00:01Z</time></trkpt>
<trkpt lat="52.450684" lon="-2.764894">
<ele>138</ele>
<time>2020-02-17T04:00:19Z</time></trkpt>
<trkpt lat="52.451117" lon="-2.765249">
<ele>140</ele>
<time>2020-02-17T04:00:29Z</time></trkpt>
<trkpt lat="52.452716" lon="-2.765158">
<ele>146</ele>
<time>2020-02-17T04:01:01Z</time></trkpt>
<trkpt lat="52.453493" lon="-2.765432">
<ele>149</ele>
<time>2020-02-17T04:01:17Z</time></trkpt>
<trkpt lat="52.453984" lon="-2.765983">
<ele>150</ele>
<time>2020-02-17T04:01:29Z</time></trkpt>
<trkpt lat="52.454589" lon="-2.766071">
<ele>152</ele>
<time>2020-02-17T04:01:41Z</time></trkpt>
<trkpt lat="52.454891" lon="-2.76628">
<ele>152</ele>
<time>2020-02-17T04:01:48Z</time></trkpt>
<trkpt lat="52.45617" lon="-2.768843">
<ele>167</ele>
<time>2020-02-17T04:02:28Z</time></trkpt>
<trkpt lat="52.457447" lon="-2.769282">
<ele>163</ele>
<time>2020-02-17T04:02:54Z</time></trkpt>
<trkpt lat="52.457964" lon="-2.76969">
<ele>166</ele>
<time>2020-02-17T04:03:06Z</time></trkpt>
<trkpt lat="52.458345" lon="-2.770289">
<ele>168</ele>
<time>2020-02-17T04:03:16Z</time></trkpt>
<trkpt lat="52.458895" lon="-2.771791">
<ele>178</ele>
<time>2020-02-17T04:03:38Z</time></trkpt>
<trkpt lat="52.46017" lon="-2.773149">
<ele>171</ele>
<time>2020-02-17T04:04:08Z</time></trkpt>
<trkpt lat="52.460959" lon="-2.774777">
<ele>178</ele>
<time>2020-02-17T04:04:34Z</time></trkpt>
<trkpt lat="52.461159" lon="-2.775011">
<ele>177</ele>
<time>2020-02-17T04:04:38Z</time></trkpt>
<trkpt lat="52.462076" lon="-2.775083">
<ele>173</ele>
<time>2020-02-17T04:04:57Z</time></trkpt>
<trkpt lat="52.463683" lon="-2.776468">
<ele>172</ele>
<time>2020-02-17T04:05:33Z</time></trkpt>
<trkpt lat="52.464173" lon="-2.77669">
<ele>172</ele>
<time>2020-02-17T04:05:43Z</time></trkpt>
<trkpt lat="52.464664" lon="-2.776662">
<ele>173</ele>
<time>2020-02-17T04:05:53Z</time></trkpt>
<trkpt lat="52.465535" lon="-2.776063">
<ele>176</ele>
<time>2020-02-17T04:06:12Z</time></trkpt>
<trkpt lat="52.465835" lon="-2.776254">
<ele>174</ele>
<time>2020-02-17T04:06:19Z</time></trkpt>
<trkpt lat="52.466189" lon="-2.776145">
<ele>176</ele>
<time>2020-02-17T04:06:26Z</time></trkpt>
<trkpt lat="52.467142" lon="-2.774565">
<ele>182</ele>
<time>2020-02-17T04:06:53Z</time></trkpt>
<trkpt lat="52.467714" lon="-2.774184">
<ele>182</ele>
<time>2020-02-17T04:07:05Z</time></trkpt>
<trkpt lat="52.46834" lon="-2.774021">
<ele>185</ele>
<time>2020-02-17T04:07:18Z</time></trkpt>
<trkpt lat="52.469049" lon="-2.774102">
<ele>190</ele>
<time>2020-02-17T04:07:32Z</time></trkpt>
<trkpt lat="52.469729" lon="-2.773857">
<ele>193</ele>
<time>2020-02-17T04:07:46Z</time></trkpt>
<trkpt lat="52.470819" lon="-2.773884">
<ele>196</ele>
<time>2020-02-17T04:08:08Z</time></trkpt>
<trkpt lat="52.471901" lon="-2.77352">
<ele>191</ele>
<time>2020-02-17T04:08:30Z</time></trkpt>
<trkpt lat="52.473569" lon="-2.773666">
<ele>193</ele>
<time>2020-02-17T04:09:04Z</time></trkpt>
<trkpt lat="52.474822" lon="-2.774184">
<ele>195</ele>
<time>2020-02-17T04:09:30Z</time></trkpt>
<trkpt lat="52.475461" lon="-2.774893">
<ele>198</ele>
<time>2020-02-17T04:09:45Z</time></trkpt>
<trkpt lat="52.476209" lon="-2.774102">
<ele>199</ele>
<time>2020-02-17T04:10:03Z</time></trkpt>
<trkpt lat="52.476501" lon="-2.773691">
<ele>201</ele>
<time>2020-02-17T04:10:11Z</time></trkpt>
<trkpt lat="52.476696" lon="-2.77329">
<ele>202</ele>
<time>2020-02-17T04:10:17Z</time></trkpt>
<trkpt lat="52.477407" lon="-2.771556">
<ele>208</ele>
<time>2020-02-17T04:10:42Z</time></trkpt>
<trkpt lat="52.477709" lon="-2.771134">
<ele>211</ele>
<time>2020-02-17T04:10:50Z</time></trkpt>
<trkpt lat="52.48128" lon="-2.769836">
<ele>234</ele>
<time>2020-02-17T04:12:04Z</time></trkpt>
<trkpt lat="52.482521" lon="-2.768749">
<ele>236</ele>
<time>2020-02-17T04:12:32Z</time></trkpt>
<trkpt lat="52.483755" lon="-2.767593">
<ele>234</ele>
<time>2020-02-17T04:13:00Z</time></trkpt>
<trkpt lat="52.484136" lon="-2.766749">
<ele>228</ele>
<time>2020-02-17T04:13:13Z</time></trkpt>
<trkpt lat="52.485062" lon="-2.765469">
<ele>219</ele>
<time>2020-02-17T04:13:37Z</time></trkpt>
<trkpt lat="52.486075" lon="-2.765216">
<ele>202</ele>
<time>2020-02-17T04:13:58Z</time></trkpt>
<trkpt lat="52.486288" lon="-2.765169">
<ele>198</ele>
<time>2020-02-17T04:14:02Z</time></trkpt>
<trkpt lat="52.48705" lon="-2.764679">
<ele>192</ele>
<time>2020-02-17T04:14:19Z</time></trkpt>
<trkpt lat="52.490319" lon="-2.76438">
<ele>175</ele>
<time>2020-02-17T04:15:24Z</time></trkpt>
<trkpt lat="52.49168" lon="-2.763971">
<ele>173</ele>
<time>2020-02-17T04:15:52Z</time></trkpt>
<trkpt lat="52.492851" lon="-2.763236">
<ele>170</ele>
<time>2020-02-17T04:16:17Z</time></trkpt>
<trkpt lat="52.49345" lon="-2.764352">
<ele>165</ele>
<time>2020-02-17T04:16:35Z</time></trkpt>
<trkpt lat="52.493805" lon="-2.764244">
<ele>163</ele>
<time>2020-02-17T04:16:42Z</time></trkpt>
<trkpt lat="52.49473" lon="-2.7631">
<ele>156</ele>
<time>2020-02-17T04:17:06Z</time></trkpt>
<trkpt lat="52.496332" lon="-2.763152">
<ele>148</ele>
<time>2020-02-17T04:17:38Z</time></trkpt>
<trkpt lat="52.497699" lon="-2.762201">
<ele>152</ele>
<time>2020-02-17T04:18:07Z</time></trkpt>
<trkpt lat="52.500075" lon="-2.761517">
<ele>162</ele>
<time>2020-02-17T04:18:56Z</time></trkpt>
<trkpt lat="52.500843" lon="-2.760681">
<ele>160</ele>
<time>2020-02-17T04:19:14Z</time></trkpt>
<trkpt lat="52.502275" lon="-2.760322">
<ele>158</ele>
<time>2020-02-17T04:19:43Z</time></trkpt>
<trkpt lat="52.503582" lon="-2.760485">
<ele>156</ele>
<time>2020-02-17T04:20:10Z</time></trkpt>
<trkpt lat="52.504017" lon="-2.760322">
<ele>155</ele>
<time>2020-02-17T04:20:18Z</time></trkpt>
<trkpt lat="52.506217" lon="-2.760458">
<ele>157</ele>
<time>2020-02-17T04:21:03Z</time></trkpt>
<trkpt lat="52.506635" lon="-2.76053">
<ele>158</ele>
<time>2020-02-17T04:21:11Z</time></trkpt>
<trkpt lat="52.507272" lon="-2.761005">
<ele>160</ele>
<time>2020-02-17T04:21:25Z</time></trkpt>
<trkpt lat="52.507558" lon="-2.761044">
<ele>160</ele>
<time>2020-02-17T04:21:31Z</time></trkpt>
<trkpt lat="52.508675" lon="-2.760785">
<ele>162</ele>
<time>2020-02-17T04:21:53Z</time></trkpt>
<trkpt lat="52.510744" lon="-2.761956">
<ele>166</ele>
<time>2020-02-17T04:22:37Z</time></trkpt>
<trkpt lat="52.511683" lon="-2.763191">
<ele>169</ele>
<time>2020-02-17T04:23:01Z</time></trkpt>
<trkpt lat="52.512374" lon="-2.761999">
<ele>173</ele>
<time>2020-02-17T04:23:21Z</time></trkpt>
<trkpt lat="52.513118" lon="-2.761445">
<ele>178</ele>
<time>2020-02-17T04:23:38Z</time></trkpt>
<trkpt lat="52.513477" lon="-2.760948">
<ele>179</ele>
<time>2020-02-17T04:23:47Z</time></trkpt>
<trkpt lat="52.514747" lon="-2.763211">
<ele>180</ele>
<time>2020-02-17T04:24:25Z</time></trkpt>
<trkpt lat="52.515563" lon="-2.765658">
<ele>183</ele>
<time>2020-02-17T04:24:59Z</time></trkpt>
<trkpt lat="52.516568" lon="-2.766709">
<ele>179</ele>
<time>2020-02-17T04:25:23Z</time></trkpt>
<trkpt lat="52.516666" lon="-2.768758">
<ele>184</ele>
<time>2020-02-17T04:25:48Z</time></trkpt>
<trkpt lat="52.517998" lon="-2.771065">
<ele>198</ele>
<time>2020-02-17T04:26:26Z</time></trkpt>
<trkpt lat="52.520895" lon="-2.773533">
<ele>205</ele>
<time>2020-02-17T04:27:32Z</time></trkpt>
<trkpt lat="52.522075" lon="-2.774327">
<ele>211</ele>
<time>2020-02-17T04:27:57Z</time></trkpt>
<trkpt lat="52.524071" lon="-2.774627">
<ele>213</ele>
<time>2020-02-17T04:28:38Z</time></trkpt>
<trkpt lat="52.525831" lon="-2.775957">
<ele>221</ele>
<time>2020-02-17T04:29:16Z</time></trkpt>
<trkpt lat="52.527178" lon="-2.775621">
<ele>224</ele>
<time>2020-02-17T04:29:44Z</time></trkpt>
<trkpt lat="52.527244" lon="-2.776647">
<ele>228</ele>
<time>2020-02-17T04:29:56Z</time></trkpt>
<trkpt lat="52.527822" lon="-2.778934">
<ele>237</ele>
<time>2020-02-17T04:30:26Z</time></trkpt>
<trkpt lat="52.530162" lon="-2.78135">
<ele>250</ele>
<time>2020-02-17T04:31:22Z</time></trkpt>
<trkpt lat="52.531865" lon="-2.784491">
<ele>255</ele>
<time>2020-02-17T04:32:13Z</time></trkpt>
<trkpt lat="52.532427" lon="-2.784925">
<ele>257</ele>
<time>2020-02-17T04:32:26Z</time></trkpt>
<trkpt lat="52.534081" lon="-2.785285">
<ele>261</ele>
<time>2020-02-17T04:32:59Z</time></trkpt>
<trkpt lat="52.53525" lon="-2.786306">
<ele>259</ele>
<time>2020-02-17T04:33:25Z</time></trkpt>
<trkpt lat="52.536728" lon="-2.790188">
<ele>234</ele>
<time>2020-02-17T04:34:21Z</time></trkpt>
<trkpt lat="52.537766" lon="-2.799089">
<ele>197</ele>
<time>2020-02-17T04:36:12Z</time></trkpt>
<trkpt lat="52.537689" lon="-2.800045">
<ele>192</ele>
<time>2020-02-17T04:36:23Z</time></trkpt>
<trkpt lat="52.539888" lon="-2.797571">
<ele>192</ele>
<time>2020-02-17T04:37:17Z</time></trkpt>
<trkpt lat="52.540129" lon="-2.797481">
<ele>192</ele>
<time>2020-02-17T04:37:22Z</time></trkpt>
<trkpt lat="52.542126" lon="-2.796171">
<ele>199</ele>
<time>2020-02-17T04:38:05Z</time></trkpt>
<trkpt lat="52.543079" lon="-2.795398">
<ele>197</ele>
<time>2020-02-17T04:38:26Z</time></trkpt>
<trkpt lat="52.543575" lon="-2.79542">
<ele>194</ele>
<time>2020-02-17T04:38:36Z</time></trkpt>
<trkpt lat="52.543783" lon="-2.79561">
<ele>191</ele>
<time>2020-02-17T04:38:41Z</time></trkpt>
<trkpt lat="52.546175" lon="-2.793492">
<ele>187</ele>
<time>2020-02-17T04:39:35Z</time></trkpt>
<trkpt lat="52.548497" lon="-2.792113">
<ele>182</ele>
<time>2020-02-17T04:40:25Z</time></trkpt>
<trkpt lat="52.551005" lon="-2.790365">
<ele>184</ele>
<time>2020-02-17T04:41:19Z</time></trkpt>
<trkpt lat="52.555493" lon="-2.786702">
<ele>175</ele>
<time>2020-02-17T04:43:00Z</time></trkpt>
<trkpt lat="52.559679" lon="-2.782712">
<ele>176</ele>
<time>2020-02-17T04:44:37Z</time></trkpt>
<trkpt lat="52.560406" lon="-2.782504">
<ele>177</ele>
<time>2020-02-17T04:44:52Z</time></trkpt>
<trkpt lat="52.570417" lon="-2.781558">
<ele>163</ele>
<time>2020-02-17T04:48:12Z</time></trkpt>
<trkpt lat="52.574748" lon="-2.779553">
<ele>154</ele>
<time>2020-02-17T04:49:43Z</time></trkpt>
<trkpt lat="52.577436" lon="-2.778557">
<ele>153</ele>
<time>2020-02-17T04:50:38Z</time></trkpt>
<trkpt lat="52.580119" lon="-2.776043">
<ele>141</ele>
<time>2020-02-17T04:51:40Z</time></trkpt>
<trkpt lat="52.58123" lon="-2.775308">
<ele>138</ele>
<time>2020-02-17T04:52:04Z</time></trkpt>
<trkpt lat="52.581814" lon="-2.775121">
<ele>137</ele>
<time>2020-02-17T04:52:16Z</time></trkpt>
<trkpt lat="52.58441" lon="-2.775067">
<ele>135</ele>
<time>2020-02-17T04:53:08Z</time></trkpt>
<trkpt lat="52.585895" lon="-2.774371">
<ele>133</ele>
<time>2020-02-17T04:53:39Z</time></trkpt>
<trkpt lat="52.587564" lon="-2.773985">
<ele>133</ele>
<time>2020-02-17T04:54:12Z</time></trkpt>
<trkpt lat="52.589824" lon="-2.77215">
<ele>130</ele>
<time>2020-02-17T04:55:03Z</time></trkpt>
<trkpt lat="52.591905" lon="-2.771694">
<ele>129</ele>
<time>2020-02-17T04:55:45Z</time></trkpt>
<trkpt lat="52.593158" lon="-2.770998">
<ele>127</ele>
<time>2020-02-17T04:56:11Z</time></trkpt>
<trkpt lat="52.594628" lon="-2.769585">
<ele>127</ele>
<time>2020-02-17T04:56:45Z</time></trkpt>
<trkpt lat="52.595726" lon="-2.768051">
<ele>125</ele>
<time>2020-02-17T04:57:14Z</time></trkpt>
<trkpt lat="52.598819" lon="-2.765696">
<ele>123</ele>
<time>2020-02-17T04:58:23Z</time></trkpt>
<trkpt lat="52.601232" lon="-2.762434">
<ele>117</ele>
<time>2020-02-17T04:59:25Z</time></trkpt>
<trkpt lat="52.603493" lon="-2.762901">
<ele>112</ele>
<time>2020-02-17T05:00:11Z</time></trkpt>
<trkpt lat="52.606444" lon="-2.764184">
<ele>109</ele>
<time>2020-02-17T05:01:12Z</time></trkpt>
<trkpt lat="52.610205" lon="-2.76707">
<ele>108</ele>
<time>2020-02-17T05:02:35Z</time></trkpt>
<trkpt lat="52.612027" lon="-2.767854">
<ele>109</ele>
<time>2020-02-17T05:03:13Z</time></trkpt>
<trkpt lat="52.612979" lon="-2.76895">
<ele>109</ele>
<time>2020-02-17T05:03:36Z</time></trkpt>
<trkpt lat="52.614202" lon="-2.769713">
<ele>107</ele>
<time>2020-02-17T05:04:02Z</time></trkpt>
<trkpt lat="52.618149" lon="-2.771409">
<ele>102</ele>
<time>2020-02-17T05:05:24Z</time></trkpt>
<trkpt lat="52.621209" lon="-2.77216">
<ele>110</ele>
<time>2020-02-17T05:06:26Z</time></trkpt>
<trkpt lat="52.621903" lon="-2.772716">
<ele>110</ele>
<time>2020-02-17T05:06:42Z</time></trkpt>
<trkpt lat="52.624281" lon="-2.775767">
<ele>114</ele>
<time>2020-02-17T05:07:42Z</time></trkpt>
<trkpt lat="52.626486" lon="-2.777164">
<ele>107</ele>
<time>2020-02-17T05:08:29Z</time></trkpt>
<trkpt lat="52.627104" lon="-2.777332">
<ele>103</ele>
<time>2020-02-17T05:08:42Z</time></trkpt>
<trkpt lat="52.629266" lon="-2.776767">
<ele>95</ele>
<time>2020-02-17T05:09:26Z</time></trkpt>
<trkpt lat="52.629981" lon="-2.77644">
<ele>95</ele>
<time>2020-02-17T05:09:41Z</time></trkpt>
<trkpt lat="52.631414" lon="-2.776703">
<ele>100</ele>
<time>2020-02-17T05:10:09Z</time></trkpt>
<trkpt lat="52.633454" lon="-2.77555">
<ele>100</ele>
<time>2020-02-17T05:10:53Z</time></trkpt>
<trkpt lat="52.63645" lon="-2.774353">
<ele>94</ele>
<time>2020-02-17T05:11:54Z</time></trkpt>
<trkpt lat="52.637313" lon="-2.774509">
<ele>95</ele>
<time>2020-02-17T05:12:12Z</time></trkpt>
<trkpt lat="52.640336" lon="-2.775791">
<ele>93</ele>
<time>2020-02-17T05:13:14Z</time></trkpt>
<trkpt lat="52.641273" lon="-2.775539">
<ele>92</ele>
<time>2020-02-17T05:13:33Z</time></trkpt>
<trkpt lat="52.643793" lon="-2.77526">
<ele>92</ele>
<time>2020-02-17T05:14:24Z</time></trkpt>
<trkpt lat="52.645705" lon="-2.774128">
<ele>90</ele>
<time>2020-02-17T05:15:05Z</time></trkpt>
<trkpt lat="52.646922" lon="-2.772932">
<ele>92</ele>
<time>2020-02-17T05:15:33Z</time></trkpt>
<trkpt lat="52.648992" lon="-2.771966">
<ele>98</ele>
<time>2020-02-17T05:16:16Z</time></trkpt>
<trkpt lat="52.649762" lon="-2.771301">
<ele>103</ele>
<time>2020-02-17T05:16:34Z</time></trkpt>
<trkpt lat="52.651979" lon="-2.770436">
<ele>110</ele>
<time>2020-02-17T05:17:19Z</time></trkpt>
<trkpt lat="52.654396" lon="-2.768297">
<ele>99</ele>
<time>2020-02-17T05:18:14Z</time></trkpt>
<trkpt lat="52.655977" lon="-2.767664">
<ele>95</ele>
<time>2020-02-17T05:18:47Z</time></trkpt>
<trkpt lat="52.657227" lon="-2.76554">
<ele>90</ele>
<time>2020-02-17T05:19:23Z</time></trkpt>
<trkpt lat="52.661371" lon="-2.763319">
<ele>86</ele>
<time>2020-02-17T05:20:50Z</time></trkpt>
<trkpt lat="52.663381" lon="-2.762643">
<ele>85</ele>
<time>2020-02-17T05:21:31Z</time></trkpt>
<trkpt lat="52.666396" lon="-2.762149">
<ele>84</ele>
<time>2020-02-17T05:22:32Z</time></trkpt>
<trkpt lat="52.669355" lon="-2.761158">
<ele>87</ele>
<time>2020-02-17T05:23:32Z</time></trkpt>
<trkpt lat="52.671266" lon="-2.761149">
<ele>91</ele>
<time>2020-02-17T05:24:11Z</time></trkpt>
<trkpt lat="52.672838" lon="-2.760847">
<ele>97</ele>
<time>2020-02-17T05:24:42Z</time></trkpt>
<trkpt lat="52.675079" lon="-2.760781">
<ele>94</ele>
<time>2020-02-17T05:25:27Z</time></trkpt>
<trkpt lat="52.675487" lon="-2.760511">
<ele>92</ele>
<time>2020-02-17T05:25:36Z</time></trkpt>
<trkpt lat="52.67632" lon="-2.759224">
<ele>86</ele>
<time>2020-02-17T05:25:59Z</time></trkpt>
<trkpt lat="52.676383" lon="-2.759187">
<ele>86</ele>
<time>2020-02-17T05:26:00Z</time></trkpt>
<trkpt lat="52.676418" lon="-2.75931">
<ele>86</ele>
<time>2020-02-17T05:26:02Z</time></trkpt>
<trkpt lat="52.67704" lon="-2.758996">
<ele>82</ele>
<time>2020-02-17T05:26:15Z</time></trkpt>
<trkpt lat="52.679765" lon="-2.759138">
<ele>75</ele>
<time>2020-02-17T05:27:10Z</time></trkpt>
<trkpt lat="52.681745" lon="-2.758829">
<ele>78</ele>
<time>2020-02-17T05:27:50Z</time></trkpt>
<trkpt lat="52.682087" lon="-2.75919">
<ele>77</ele>
<time>2020-02-17T05:27:58Z</time></trkpt>
<trkpt lat="52.682233" lon="-2.75909">
<ele>77</ele>
<time>2020-02-17T05:28:01Z</time></trkpt>
<trkpt lat="52.682592" lon="-2.759209">
<ele>77</ele>
<time>2020-02-17T05:28:08Z</time></trkpt>
<trkpt lat="52.683819" lon="-2.758142">
<ele>76</ele>
<time>2020-02-17T05:28:36Z</time></trkpt>
<trkpt lat="52.68598" lon="-2.757018">
<ele>71</ele>
<time>2020-02-17T05:29:21Z</time></trkpt>
<trkpt lat="52.686008" lon="-2.757183">
<ele>71</ele>
<time>2020-02-17T05:29:23Z</time></trkpt>
<trkpt lat="52.688546" lon="-2.755684">
<ele>63</ele>
<time>2020-02-17T05:30:18Z</time></trkpt>
<trkpt lat="52.689898" lon="-2.755293">
<ele>64</ele>
<time>2020-02-17T05:30:45Z</time></trkpt>
<trkpt lat="52.69005" lon="-2.755362">
<ele>64</ele>
<time>2020-02-17T05:30:48Z</time></trkpt>
<trkpt lat="52.690793" lon="-2.755332">
<ele>64</ele>
<time>2020-02-17T05:31:03Z</time></trkpt>
<trkpt lat="52.691103" lon="-2.755289">
<ele>63</ele>
<time>2020-02-17T05:31:09Z</time></trkpt>
<trkpt lat="52.691503" lon="-2.755273">
<ele>61</ele>
<time>2020-02-17T05:31:17Z</time></trkpt>
<trkpt lat="52.692004" lon="-2.75576">
<ele>60</ele>
<time>2020-02-17T05:31:29Z</time></trkpt>
<trkpt lat="52.692226" lon="-2.756216">
<ele>62</ele>
<time>2020-02-17T05:31:36Z</time></trkpt>
<trkpt lat="52.692332" lon="-2.756169">
<ele>62</ele>
<time>2020-02-17T05:31:38Z</time></trkpt>
<trkpt lat="52.693016" lon="-2.757413">
<ele>66</ele>
<time>2020-02-17T05:31:59Z</time></trkpt>
<trkpt lat="52.694261" lon="-2.760486">
<ele>70</ele>
<time>2020-02-17T05:32:44Z</time></trkpt>
<trkpt lat="52.696661" lon="-2.764822">
<ele>79</ele>
<time>2020-02-17T05:33:55Z</time></trkpt>
<trkpt lat="52.696687" lon="-2.765071">
<ele>79</ele>
<time>2020-02-17T05:33:58Z</time></trkpt>
<trkpt lat="52.696842" lon="-2.765029">
<ele>80</ele>
<time>2020-02-17T05:34:01Z</time></trkpt>
<trkpt lat="52.697633" lon="-2.766145">
<ele>83</ele>
<time>2020-02-17T05:34:22Z</time></trkpt>
<trkpt lat="52.699763" lon="-2.769858">
<ele>69</ele>
<time>2020-02-17T05:35:24Z</time></trkpt>
<trkpt lat="52.700196" lon="-2.770294">
<ele>69</ele>
<time>2020-02-17T05:35:34Z</time></trkpt>
<trkpt lat="52.700844" lon="-2.770617">
<ele>69</ele>
<time>2020-02-17T05:35:48Z</time></trkpt>
<trkpt lat="52.703495" lon="-2.771465">
<ele>79</ele>
<time>2020-02-17T05:36:42Z</time></trkpt>
<trkpt lat="52.705401" lon="-2.77335">
<ele>80</ele>
<time>2020-02-17T05:37:26Z</time></trkpt>
<trkpt lat="52.705405" lon="-2.773573">
<ele>80</ele>
<time>2020-02-17T05:37:29Z</time></trkpt>
<trkpt lat="52.705548" lon="-2.773503">
<ele>80</ele>
<time>2020-02-17T05:37:32Z</time></trkpt>
<trkpt lat="52.707193" lon="-2.778151">
<ele>77</ele>
<time>2020-02-17T05:38:37Z</time></trkpt>
<trkpt lat="52.708104" lon="-2.779435">
<ele>79</ele>
<time>2020-02-17T05:39:01Z</time></trkpt>
<trkpt lat="52.708145" lon="-2.779743">
<ele>79</ele>
<time>2020-02-17T05:39:05Z</time></trkpt>
<trkpt lat="52.708312" lon="-2.77968">
<ele>79</ele>
<time>2020-02-17T05:39:09Z</time></trkpt>
<trkpt lat="52.710213" lon="-2.781881">
<ele>77</ele>
<time>2020-02-17T05:39:55Z</time></trkpt>
<trkpt lat="52.711912" lon="-2.784803">
<ele>79</ele>
<time>2020-02-17T05:40:44Z</time></trkpt>
<trkpt lat="52.712945" lon="-2.787075">
<ele>78</ele>
<time>2020-02-17T05:41:19Z</time></trkpt>
<trkpt lat="52.713931" lon="-2.790783">
<ele>87</ele>
<time>2020-02-17T05:42:08Z</time></trkpt>
<trkpt lat="52.714414" lon="-2.791882">
<ele>86</ele>
<time>2020-02-17T05:42:25Z</time></trkpt>
<trkpt lat="52.714981" lon="-2.792371">
<ele>88</ele>
<time>2020-02-17T05:42:37Z</time></trkpt>
<trkpt lat="52.716844" lon="-2.792683">
<ele>93</ele>
<time>2020-02-17T05:43:15Z</time></trkpt>
<trkpt lat="52.717635" lon="-2.793032">
<ele>95</ele>
<time>2020-02-17T05:43:31Z</time></trkpt>
<trkpt lat="52.718272" lon="-2.793599">
<ele>94</ele>
<time>2020-02-17T05:43:46Z</time></trkpt>
<trkpt lat="52.718986" lon="-2.794683">
<ele>90</ele>
<time>2020-02-17T05:44:05Z</time></trkpt>
<trkpt lat="52.719813" lon="-2.796854">
<ele>88</ele>
<time>2020-02-17T05:44:36Z</time></trkpt>
<trkpt lat="52.725539" lon="-2.815445">
<ele>79</ele>
<time>2020-02-17T05:48:49Z</time></trkpt>
<trkpt lat="52.72645" lon="-2.819086">
<ele>77</ele>
<time>2020-02-17T05:49:37Z</time></trkpt>
<trkpt lat="52.726527" lon="-2.823247">
<ele>79</ele>
<time>2020-02-17T05:50:28Z</time></trkpt>
<trkpt lat="52.728102" lon="-2.832066">
<ele>80</ele>
<time>2020-02-17T05:52:19Z</time></trkpt>
<trkpt lat="52.728695" lon="-2.834602">
<ele>72</ele>
<time>2020-02-17T05:52:52Z</time></trkpt>
<trkpt lat="52.730393" lon="-2.839785">
<ele>59</ele>
<time>2020-02-17T05:54:04Z</time></trkpt>
<trkpt lat="52.731519" lon="-2.841751">
<ele>59</ele>
<time>2020-02-17T05:54:37Z</time></trkpt>
</trkseg>
</trk>
</gpx>